createdAt,value
2018-12-15T00:02:11.437Z,0.40
2018-12-15T00:04:38.630Z,0.30
2018-12-15T00:07:06.908Z,0.30
2018-12-15T00:09:34.129Z,0.30
2018-12-15T00:12:02.352Z,0.30
2018-12-15T00:14:29.591Z,0.30
2018-12-15T00:16:56.783Z,0.30
2018-12-15T00:19:24.996Z,0.30
2018-12-15T00:21:52.288Z,0.30
2018-12-15T00:24:19.548Z,0.40
2018-12-15T00:26:46.737Z,0.30
2018-12-15T00:29:14.985Z,0.30
2018-12-15T00:31:42.156Z,0.30
2018-12-15T00:34:09.376Z,0.30
2018-12-15T00:36:36.874Z,0.30
2018-12-15T00:39:06.518Z,0.30
2018-12-15T00:41:33.739Z,0.30
2018-12-15T00:44:01.945Z,0.30
2018-12-15T00:46:29.122Z,0.30
2018-12-15T00:48:56.400Z,0.30
2018-12-15T00:51:23.691Z,0.40
2018-12-15T00:53:54.301Z,0.40
2018-12-15T00:56:21.482Z,0.40
2018-12-15T00:58:48.712Z,0.40
2018-12-15T01:01:15.927Z,0.40
2018-12-15T01:03:43.121Z,0.40
2018-12-15T01:06:10.309Z,0.40
2018-12-15T01:08:37.563Z,0.40
2018-12-15T01:11:04.747Z,0.40
2018-12-15T01:13:31.983Z,0.40
2018-12-15T01:15:59.145Z,0.40
2018-12-15T01:18:27.375Z,0.40
2018-12-15T01:20:54.567Z,0.40
2018-12-15T01:23:21.916Z,0.40
2018-12-15T01:25:49.084Z,0.40
2018-12-15T01:28:16.240Z,0.40
2018-12-15T01:30:43.427Z,0.40
2018-12-15T01:33:11.687Z,0.40
2018-12-15T01:35:38.924Z,0.40
2018-12-15T01:38:06.188Z,0.40
2018-12-15T01:40:33.351Z,0.40
2018-12-15T01:43:00.602Z,0.40
2018-12-15T01:45:27.771Z,0.40
2018-12-15T01:47:58.785Z,0.40
2018-12-15T01:50:25.978Z,0.40
2018-12-15T01:52:55.212Z,0.40
2018-12-15T01:55:22.400Z,0.40
2018-12-15T01:57:49.618Z,0.40
2018-12-15T02:00:16.859Z,0.40
2018-12-15T02:02:44.056Z,0.40
2018-12-15T02:05:11.360Z,0.30
2018-12-15T02:07:41.707Z,0.30
2018-12-15T02:10:08.880Z,0.40
2018-12-15T02:12:36.143Z,0.40
2018-12-15T02:15:10.917Z,0.40
2018-12-15T02:17:38.133Z,0.40
2018-12-15T02:20:05.362Z,0.40
2018-12-15T02:22:32.553Z,0.40
2018-12-15T02:24:59.769Z,0.40
2018-12-15T02:27:26.970Z,0.40
2018-12-15T02:29:54.193Z,0.40
2018-12-15T02:32:21.371Z,0.40
2018-12-15T02:34:59.101Z,0.40
2018-12-15T02:37:26.283Z,0.40
2018-12-15T02:40:00.267Z,0.40
2018-12-15T02:42:27.443Z,0.30
2018-12-15T02:44:54.678Z,0.30
2018-12-15T02:47:21.883Z,0.30
2018-12-15T02:49:52.360Z,0.30
2018-12-15T02:52:19.552Z,0.30
2018-12-15T02:54:47.480Z,0.30
2018-12-15T02:57:14.663Z,0.30
2018-12-15T02:59:41.873Z,0.30
2018-12-15T03:02:09.074Z,0.30
2018-12-15T03:04:36.258Z,0.30
2018-12-15T03:07:03.485Z,0.40
2018-12-15T03:09:30.698Z,0.40
2018-12-15T03:11:57.905Z,0.30
2018-12-15T03:14:25.097Z,0.30
2018-12-15T03:17:04.833Z,0.30
2018-12-15T03:19:32.044Z,0.30
2018-12-15T03:22:03.513Z,0.30
2018-12-15T03:24:30.743Z,0.30
2018-12-15T03:26:57.921Z,0.30
2018-12-15T03:29:25.173Z,0.30
2018-12-15T03:31:53.324Z,0.30
2018-12-15T03:34:20.521Z,0.30
2018-12-15T03:36:47.722Z,0.30
2018-12-15T03:39:14.937Z,0.30
2018-12-15T03:41:48.124Z,0.30
2018-12-15T03:44:15.348Z,0.30
2018-12-15T03:46:43.493Z,0.30
2018-12-15T03:49:10.663Z,0.30
2018-12-15T03:51:41.540Z,0.30
2018-12-15T03:54:08.713Z,0.30
2018-12-15T03:56:35.904Z,0.30
2018-12-15T03:59:03.078Z,0.30
2018-12-15T04:01:30.300Z,0.40
2018-12-15T04:03:57.533Z,0.30
2018-12-15T04:06:24.754Z,0.30
2018-12-15T04:08:52.037Z,0.30
2018-12-15T04:11:19.235Z,0.30
2018-12-15T04:13:46.448Z,0.30
2018-12-15T04:16:13.624Z,0.30
2018-12-15T04:18:40.846Z,0.30
2018-12-15T04:21:08.059Z,0.30
2018-12-15T04:23:35.261Z,0.30
2018-12-15T04:26:02.531Z,0.30
2018-12-15T04:28:29.769Z,0.30
2018-12-15T04:30:57.093Z,0.30
2018-12-15T04:33:24.303Z,0.30
2018-12-15T04:35:51.524Z,0.30
2018-12-15T04:38:18.723Z,0.30
2018-12-15T04:40:45.935Z,0.30
2018-12-15T04:43:13.141Z,0.30
2018-12-15T04:45:40.342Z,0.30
2018-12-15T04:48:11.074Z,0.30
2018-12-15T04:50:36.911Z,0.30
2018-12-15T04:53:04.112Z,0.30
2018-12-15T04:55:31.504Z,0.30
2018-12-15T04:57:58.735Z,0.30
2018-12-15T05:00:29.477Z,0.30
2018-12-15T05:02:56.677Z,0.30
2018-12-15T05:05:24.079Z,0.30
2018-12-15T05:07:51.262Z,0.30
2018-12-15T05:10:25.427Z,0.30
2018-12-15T05:12:52.635Z,0.30
2018-12-15T05:15:19.809Z,0.30
2018-12-15T05:17:47.140Z,0.30
2018-12-15T05:20:14.322Z,0.30
2018-12-15T05:22:41.620Z,0.30
2018-12-15T05:25:08.952Z,0.30
2018-12-15T05:27:36.255Z,0.30
2018-12-15T05:30:04.280Z,0.30
2018-12-15T05:32:38.487Z,0.30
2018-12-15T05:35:05.715Z,0.30
2018-12-15T05:37:32.970Z,0.30
2018-12-15T05:40:00.183Z,0.30
2018-12-15T05:42:28.501Z,0.30
2018-12-15T05:44:55.847Z,0.30
2018-12-15T05:47:23.120Z,0.30
2018-12-15T05:49:50.296Z,0.30
2018-12-15T05:52:19.587Z,0.30
2018-12-15T05:54:46.767Z,0.40
2018-12-15T05:57:15.118Z,0.30
2018-12-15T05:59:42.321Z,0.30
2018-12-15T06:02:10.815Z,0.30
2018-12-15T06:04:38.058Z,0.30
2018-12-15T06:07:05.349Z,0.30
2018-12-15T06:09:32.577Z,0.30
2018-12-15T06:11:59.851Z,0.30
2018-12-15T06:14:27.073Z,0.30
2018-12-15T06:16:57.946Z,0.30
2018-12-15T06:19:25.148Z,0.30
2018-12-15T06:21:52.443Z,0.30
2018-12-15T06:24:19.663Z,0.30
2018-12-15T06:26:55.619Z,0.30
2018-12-15T06:29:22.841Z,0.30
2018-12-15T06:31:53.916Z,0.30
2018-12-15T06:34:21.086Z,0.30
2018-12-15T06:36:55.595Z,0.30
2018-12-15T06:39:22.764Z,0.30
2018-12-15T06:41:50.042Z,0.30
2018-12-15T06:44:17.247Z,0.30
2018-12-15T06:46:51.759Z,0.30
2018-12-15T06:49:18.972Z,0.30
2018-12-15T06:51:50.073Z,0.30
2018-12-15T06:54:17.241Z,0.30
2018-12-15T06:56:47.976Z,0.30
2018-12-15T06:59:15.182Z,0.30
2018-12-15T07:01:42.469Z,0.30
2018-12-15T07:04:09.661Z,0.30
2018-12-15T07:06:36.972Z,0.30
2018-12-15T07:09:04.865Z,0.30
2018-12-15T07:11:32.172Z,0.30
2018-12-15T07:13:59.385Z,0.30
2018-12-15T07:16:26.714Z,0.30
2018-12-15T07:18:53.917Z,0.30
2018-12-15T07:21:21.119Z,0.40
2018-12-15T07:23:48.365Z,0.40
2018-12-15T07:26:15.541Z,0.40
2018-12-15T07:28:42.857Z,0.40
2018-12-15T07:31:10.028Z,0.40
2018-12-15T07:33:37.368Z,0.40
2018-12-15T07:36:04.576Z,0.40
2018-12-15T07:38:31.882Z,0.40
2018-12-15T07:40:59.232Z,0.40
2018-12-15T07:43:26.440Z,0.40
2018-12-15T07:45:53.697Z,0.40
2018-12-15T07:48:26.957Z,0.50
2018-12-15T07:50:54.271Z,0.40
2018-12-15T07:53:28.948Z,0.40
2018-12-15T07:55:56.151Z,0.50
2018-12-15T07:58:23.405Z,0.50
2018-12-15T08:00:50.611Z,0.50
2018-12-15T08:03:17.926Z,0.50
2018-12-15T08:05:45.148Z,0.50
2018-12-15T08:08:16.168Z,0.50
2018-12-15T08:10:48.991Z,0.50
2018-12-15T08:13:18.238Z,0.50
2018-12-15T08:15:45.552Z,0.50
2018-12-15T08:18:12.765Z,0.60
2018-12-15T08:20:39.999Z,0.60
2018-12-15T08:23:07.325Z,0.60
2018-12-15T08:25:35.977Z,0.60
2018-12-15T08:28:03.366Z,0.60
2018-12-15T08:30:35.804Z,0.60
2018-12-15T08:33:03.044Z,0.70
2018-12-15T08:35:35.866Z,0.70
2018-12-15T08:38:03.049Z,0.70
2018-12-15T08:40:30.341Z,0.70
2018-12-15T08:42:57.515Z,0.70
2018-12-15T08:45:24.738Z,0.70
2018-12-15T08:47:51.959Z,0.70
2018-12-15T08:50:23.158Z,0.70
2018-12-15T08:52:50.329Z,0.70
2018-12-15T08:55:18.654Z,0.70
2018-12-15T08:57:45.847Z,0.70
2018-12-15T09:00:13.243Z,0.80
2018-12-15T09:02:40.592Z,0.80
2018-12-15T09:05:07.842Z,0.80
2018-12-15T09:07:35.047Z,0.80
2018-12-15T09:10:02.321Z,0.80
2018-12-15T09:12:29.533Z,0.80
2018-12-15T09:14:57.830Z,0.80
2018-12-15T09:17:25.006Z,0.80
2018-12-15T09:19:59.439Z,0.80
2018-12-15T09:22:26.640Z,0.80
2018-12-15T09:24:57.910Z,0.80
2018-12-15T09:27:25.090Z,0.80
2018-12-15T09:29:52.427Z,0.80
2018-12-15T09:32:19.602Z,0.80
2018-12-15T09:34:49.811Z,0.80
2018-12-15T09:37:17.015Z,0.80
2018-12-15T09:39:46.264Z,0.80
2018-12-15T09:42:13.458Z,0.80
2018-12-15T09:44:43.963Z,0.80
2018-12-15T09:47:11.168Z,0.80
2018-12-15T09:49:39.393Z,0.80
2018-12-15T09:52:06.589Z,0.80
2018-12-15T09:54:33.790Z,0.80
2018-12-15T09:57:01.028Z,0.80
2018-12-15T09:59:28.269Z,0.80
2018-12-15T10:01:55.461Z,0.90
2018-12-15T10:04:32.712Z,0.90
2018-12-15T10:06:59.883Z,0.90
2018-12-15T10:09:27.253Z,1.00
2018-12-15T10:11:54.450Z,0.90
2018-12-15T10:14:27.441Z,0.90
2018-12-15T10:17:01.042Z,0.90
2018-12-15T10:19:28.352Z,1.00
2018-12-15T10:21:56.603Z,1.00
2018-12-15T10:24:23.786Z,1.00
2018-12-15T10:26:54.287Z,1.00
2018-12-15T10:29:27.086Z,1.00
2018-12-15T10:32:00.198Z,1.00
2018-12-15T10:34:27.362Z,1.00
2018-12-15T10:37:02.129Z,1.00
2018-12-15T10:39:29.327Z,1.00
2018-12-15T10:41:56.527Z,1.00
2018-12-15T10:44:23.737Z,1.00
2018-12-15T10:46:58.178Z,1.00
2018-12-15T10:49:30.650Z,1.00
2018-12-15T10:51:58.546Z,1.00
2018-12-15T10:54:25.771Z,1.00
2018-12-15T10:56:58.609Z,1.00
2018-12-15T10:59:25.803Z,1.10
2018-12-15T11:02:07.037Z,1.10
2018-12-15T11:04:34.233Z,1.10
2018-12-15T11:07:04.605Z,1.10
2018-12-15T11:09:31.803Z,1.10
2018-12-15T11:12:01.018Z,1.10
2018-12-15T11:14:28.240Z,1.10
2018-12-15T11:16:55.417Z,1.20
2018-12-15T11:19:23.632Z,1.20
2018-12-15T11:21:50.830Z,1.20
2018-12-15T11:24:18.033Z,1.10
2018-12-15T11:26:45.232Z,1.20
2018-12-15T11:29:16.257Z,1.20
2018-12-15T11:31:43.473Z,1.20
2018-12-15T11:39:47.362Z,1.20
2018-12-15T11:42:14.606Z,1.20
2018-12-15T11:44:41.778Z,1.10
2018-12-15T11:47:12.696Z,1.20
2018-12-15T11:49:43.594Z,1.20
2018-12-15T11:52:09.355Z,1.20
2018-12-15T11:54:36.538Z,1.20
2018-12-15T11:57:06.243Z,1.20
2018-12-15T11:59:33.440Z,1.20
2018-12-15T12:02:05.278Z,1.30
2018-12-15T12:04:32.631Z,1.30
2018-12-15T12:07:03.366Z,1.30
2018-12-15T12:09:30.721Z,1.30
2018-12-15T12:11:58.011Z,1.30
2018-12-15T12:14:25.229Z,1.30
2018-12-15T12:16:52.426Z,1.30
2018-12-15T12:19:25.778Z,1.30
2018-12-15T12:21:52.964Z,1.30
2018-12-15T12:24:21.228Z,1.30
2018-12-15T12:26:54.189Z,1.30
2018-12-15T12:29:21.481Z,1.40
2018-12-15T12:31:48.686Z,1.40
2018-12-15T12:34:15.956Z,1.40
2018-12-15T12:36:43.213Z,1.40
2018-12-15T12:39:10.472Z,1.30
2018-12-15T12:41:37.676Z,1.30
2018-12-15T12:44:05.020Z,1.20
2018-12-15T12:46:32.245Z,1.30
2018-12-15T12:48:59.515Z,1.30
2018-12-15T12:51:26.731Z,1.30
2018-12-15T12:53:53.997Z,1.30
2018-12-15T12:56:21.216Z,1.30
2018-12-15T12:58:48.522Z,1.30
2018-12-15T13:01:15.702Z,1.30
2018-12-15T13:03:46.786Z,1.30
2018-12-15T13:06:13.976Z,1.30
2018-12-15T13:08:41.294Z,1.30
2018-12-15T13:11:08.483Z,1.30
2018-12-15T13:13:35.811Z,1.30
2018-12-15T13:16:03.031Z,1.30
2018-12-15T13:18:30.279Z,1.30
2018-12-15T13:20:58.379Z,1.20
2018-12-15T13:23:25.625Z,1.20
2018-12-15T13:25:52.820Z,1.20
2018-12-15T13:28:21.039Z,1.20
2018-12-15T13:30:48.254Z,1.20
2018-12-15T13:33:21.327Z,1.20
2018-12-15T13:35:48.576Z,1.20
2018-12-15T13:38:15.942Z,1.20
2018-12-15T13:40:43.105Z,1.20
2018-12-15T13:43:10.375Z,1.10
2018-12-15T13:45:37.590Z,1.10
2018-12-15T13:48:05.033Z,1.10
2018-12-15T13:50:32.203Z,1.10
2018-12-15T13:52:59.642Z,1.20
2018-12-15T13:55:26.815Z,1.10
2018-12-15T13:57:55.173Z,1.10
2018-12-15T14:00:22.573Z,1.10
2018-12-15T14:02:49.908Z,1.10
2018-12-15T14:05:18.122Z,1.10
2018-12-15T14:07:45.517Z,1.10
2018-12-15T14:10:12.890Z,1.10
2018-12-15T14:12:40.150Z,1.10
2018-12-15T14:15:07.503Z,1.00
2018-12-15T14:17:34.693Z,1.00
2018-12-15T14:20:01.904Z,0.90
2018-12-15T14:22:29.195Z,0.90
2018-12-15T14:24:56.434Z,0.90
2018-12-15T14:27:23.639Z,0.90
2018-12-15T14:29:50.801Z,0.90
2018-12-15T14:32:18.052Z,0.90
2018-12-15T14:34:46.463Z,0.90
2018-12-15T14:37:13.658Z,0.80
2018-12-15T14:39:41.071Z,0.80
2018-12-15T14:42:09.106Z,0.80
2018-12-15T14:44:37.070Z,0.80
2018-12-15T14:47:04.269Z,0.80
2018-12-15T14:49:31.567Z,0.90
2018-12-15T14:51:58.822Z,0.80
2018-12-15T14:54:26.062Z,0.80
2018-12-15T14:56:53.472Z,0.80
2018-12-15T14:59:22.002Z,0.90
2018-12-15T15:01:49.308Z,0.90
2018-12-15T15:04:33.194Z,0.90
2018-12-15T15:07:03.809Z,0.90
2018-12-15T15:09:31.143Z,1.00
2018-12-15T15:11:58.353Z,1.00
2018-12-15T15:14:33.083Z,1.00
2018-12-15T15:17:06.426Z,0.90
2018-12-15T15:19:33.739Z,0.90
2018-12-15T15:22:01.060Z,0.90
2018-12-15T15:24:28.579Z,0.90
2018-12-15T15:26:55.915Z,0.90
2018-12-15T15:29:23.096Z,0.90
2018-12-15T15:31:50.406Z,0.90
2018-12-15T15:34:17.596Z,0.90
2018-12-15T15:36:44.848Z,0.90
2018-12-15T15:39:12.213Z,0.90
2018-12-15T15:41:43.172Z,0.90
2018-12-15T15:44:10.466Z,0.90
2018-12-15T15:46:42.534Z,0.90
2018-12-15T15:49:09.730Z,0.90
2018-12-15T15:51:36.994Z,0.90
2018-12-15T15:54:04.199Z,0.90
2018-12-15T15:56:31.511Z,0.90
2018-12-15T15:58:58.716Z,0.90
2018-12-15T16:01:31.114Z,0.90
2018-12-15T16:03:58.645Z,0.90
2018-12-15T16:06:27.085Z,0.90
2018-12-15T16:08:54.652Z,0.80
2018-12-15T16:11:26.105Z,0.80
2018-12-15T16:13:57.452Z,0.90
2018-12-15T16:16:29.751Z,0.90
2018-12-15T16:18:58.853Z,0.90
2018-12-15T16:21:29.568Z,0.90
2018-12-15T16:23:58.179Z,0.90
2018-12-15T16:26:26.000Z,0.90
2018-12-15T16:28:54.775Z,0.90
2018-12-15T16:31:23.301Z,0.90
2018-12-15T16:33:50.954Z,0.90
2018-12-15T16:36:19.164Z,1.00
2018-12-15T16:38:46.591Z,0.90
2018-12-15T16:41:14.089Z,0.90
2018-12-15T16:43:41.356Z,0.90
2018-12-15T16:46:08.580Z,1.00
2018-12-15T16:48:35.813Z,0.90
2018-12-15T16:51:07.758Z,0.90
2018-12-15T16:53:34.930Z,1.00
2018-12-15T16:56:05.773Z,0.90
2018-12-15T16:58:32.977Z,0.90
2018-12-15T17:01:03.778Z,0.90
2018-12-15T17:03:30.980Z,0.80
2018-12-15T17:05:58.292Z,0.80
2018-12-15T17:08:25.572Z,0.80
2018-12-15T17:11:00.558Z,0.80
2018-12-15T17:13:27.763Z,0.90
2018-12-15T17:16:00.354Z,0.90
2018-12-15T17:18:27.798Z,-1.50
2018-12-15T17:20:56.814Z,0.80
2018-12-15T17:23:24.791Z,0.80
2018-12-15T17:25:53.749Z,0.80
2018-12-15T17:28:21.172Z,0.80
2018-12-15T17:30:48.498Z,0.90
2018-12-15T17:33:15.804Z,0.80
2018-12-15T17:35:43.131Z,0.80
2018-12-15T17:38:13.433Z,0.90
2018-12-15T17:40:40.633Z,0.80
2018-12-15T17:43:09.679Z,0.80
2018-12-15T17:45:36.898Z,0.70
2018-12-15T17:48:07.423Z,0.70
2018-12-15T17:50:34.631Z,0.80
2018-12-15T17:53:07.993Z,0.80
2018-12-15T17:55:35.161Z,0.90
2018-12-15T17:58:02.456Z,0.80
2018-12-15T18:00:29.687Z,0.80
2018-12-15T18:02:56.918Z,0.80
2018-12-15T18:05:24.122Z,0.80
2018-12-15T18:07:51.326Z,0.80
2018-12-15T18:10:18.544Z,0.80
2018-12-15T18:12:49.199Z,0.80
2018-12-15T18:15:16.403Z,0.80
2018-12-15T18:17:43.603Z,0.80
2018-12-15T18:20:10.883Z,0.70
2018-12-15T18:22:38.087Z,0.70
2018-12-15T18:25:05.473Z,0.70
2018-12-15T18:27:32.689Z,0.60
2018-12-15T18:29:59.965Z,0.60
2018-12-15T18:32:27.166Z,0.60
2018-12-15T18:34:57.532Z,0.60
2018-12-15T18:37:24.747Z,0.60
2018-12-15T18:39:51.943Z,0.60
2018-12-15T18:42:19.166Z,0.60
2018-12-15T18:44:46.496Z,0.60
2018-12-15T18:47:13.742Z,0.60
2018-12-15T18:49:40.950Z,0.50
2018-12-15T18:52:08.138Z,0.50
2018-12-15T18:54:35.394Z,0.50
2018-12-15T18:57:02.748Z,0.50
2018-12-15T18:59:30.175Z,0.50
2018-12-15T19:01:57.373Z,0.60
2018-12-15T19:04:24.576Z,0.60
2018-12-15T19:06:51.807Z,0.60
2018-12-15T19:09:19.066Z,0.50
2018-12-15T19:11:46.329Z,0.50
2018-12-15T19:14:13.594Z,0.50
2018-12-15T19:16:40.786Z,0.50
2018-12-15T19:19:08.027Z,0.50
2018-12-15T19:21:36.232Z,0.50
2018-12-15T19:24:03.433Z,0.50
2018-12-15T19:26:31.207Z,0.50
2018-12-15T19:28:58.402Z,0.50
2018-12-15T19:31:26.580Z,0.50
2018-12-15T19:33:53.821Z,0.40
2018-12-15T19:36:24.584Z,0.40
2018-12-15T19:38:51.768Z,0.40
2018-12-15T19:41:19.026Z,0.30
2018-12-15T19:43:46.340Z,0.30
2018-12-15T19:46:14.623Z,0.30
2018-12-15T19:48:41.829Z,0.20
2018-12-15T19:51:10.311Z,0.20
2018-12-15T19:53:37.514Z,0.20
2018-12-15T19:56:04.764Z,0.20
2018-12-15T19:58:31.993Z,0.20
2018-12-15T20:01:00.338Z,0.20
2018-12-15T20:03:27.534Z,0.30
2018-12-15T20:05:54.787Z,0.30
2018-12-15T20:08:21.996Z,0.30
2018-12-15T20:10:52.416Z,0.20
2018-12-15T20:13:19.597Z,0.20
2018-12-15T20:15:47.013Z,0.20
2018-12-15T20:18:14.198Z,0.20
2018-12-15T20:20:41.375Z,0.20
2018-12-15T20:23:14.753Z,0.30
2018-12-15T20:25:41.969Z,0.30
2018-12-15T20:28:09.175Z,0.30
2018-12-15T20:30:36.377Z,0.20
2018-12-15T20:33:07.205Z,0.20
2018-12-15T20:35:34.522Z,0.30
2018-12-15T20:38:01.779Z,0.30
2018-12-15T20:40:29.010Z,0.30
2018-12-15T20:42:56.371Z,0.30
2018-12-15T20:45:23.534Z,0.30
2018-12-15T20:47:50.759Z,0.20
2018-12-15T20:50:17.966Z,0.30
2018-12-15T20:52:47.714Z,0.30
2018-12-15T20:55:14.484Z,0.30
2018-12-15T20:57:41.702Z,0.30
2018-12-15T21:00:09.465Z,0.30
2018-12-15T21:02:36.741Z,0.40
2018-12-15T21:05:04.184Z,0.40
2018-12-15T21:07:31.435Z,0.40
2018-12-15T21:09:58.742Z,0.40
2018-12-15T21:12:25.975Z,0.40
2018-12-15T21:14:53.852Z,0.50
2018-12-15T21:17:21.301Z,0.40
2018-12-15T21:19:53.656Z,0.40
2018-12-15T21:22:21.124Z,0.40
2018-12-15T21:24:48.342Z,0.50
2018-12-15T21:27:15.525Z,0.50
2018-12-15T21:29:42.757Z,0.50
2018-12-15T21:32:10.089Z,0.40
2018-12-15T21:34:37.339Z,0.40
2018-12-15T21:37:04.532Z,0.40
2018-12-15T21:39:31.796Z,0.40
2018-12-15T21:41:58.976Z,0.40
2018-12-15T21:44:33.328Z,0.40
2018-12-15T21:47:00.725Z,0.40
2018-12-15T21:49:28.021Z,0.30
2018-12-15T21:51:56.418Z,0.30
2018-12-15T21:54:23.994Z,0.30
2018-12-15T21:56:51.219Z,0.30
2018-12-15T21:59:18.458Z,0.30
2018-12-15T22:01:45.810Z,0.30
2018-12-15T22:04:13.007Z,0.30
2018-12-15T22:06:40.215Z,0.20
2018-12-15T22:09:07.421Z,0.10
2018-12-15T22:11:34.597Z,0.10
2018-12-15T22:14:03.317Z,0.10
2018-12-15T22:16:31.755Z,0.10
2018-12-15T22:18:59.220Z,0.00
2018-12-15T22:21:26.397Z,0.00
2018-12-15T22:23:53.629Z,0.00
2018-12-15T22:26:21.812Z,0.00
2018-12-15T22:28:49.016Z,0.00
2018-12-15T22:31:18.191Z,0.00
2018-12-15T22:33:45.362Z,0.00
2018-12-15T22:36:13.655Z,-0.10
2018-12-15T22:38:40.872Z,-0.10
2018-12-15T22:41:08.094Z,-0.10
2018-12-15T22:43:35.298Z,-0.10
2018-12-15T22:46:05.808Z,-0.10
2018-12-15T22:48:32.984Z,-0.20
2018-12-15T22:51:04.861Z,-0.20
2018-12-15T22:53:32.060Z,-0.20
2018-12-15T22:56:07.016Z,-0.20
2018-12-15T22:58:34.365Z,-0.30
2018-12-15T23:01:18.545Z,-0.30
2018-12-15T23:03:45.860Z,-0.20
2018-12-15T23:06:13.107Z,-0.20
2018-12-15T23:08:40.283Z,-0.20
2018-12-15T23:11:07.505Z,-0.20
2018-12-15T23:13:34.813Z,-0.20
2018-12-15T23:16:07.851Z,-0.20
2018-12-15T23:18:35.204Z,-0.30
2018-12-15T23:21:02.401Z,-0.20
2018-12-15T23:23:30.629Z,-0.30
2018-12-15T23:25:57.831Z,-0.30
2018-12-15T23:28:25.354Z,-0.20
2018-12-15T23:30:52.759Z,-0.20
2018-12-15T23:33:22.028Z,-0.20
2018-12-15T23:35:57.331Z,-0.30
2018-12-15T23:38:25.227Z,-0.30
2018-12-15T23:41:01.838Z,-0.30
2018-12-15T23:43:31.077Z,-0.30
2018-12-15T23:46:15.376Z,-0.20
2018-12-15T23:48:42.589Z,-0.20
2018-12-15T23:51:14.018Z,-0.20
2018-12-15T23:53:41.809Z,-0.20
2018-12-15T23:56:15.421Z,-0.20
2018-12-15T23:58:42.627Z,-0.20
